Station Historical Data
Daily Summary for October 07, 2017 Units:  Metric    English   Both
« Previous Day
Next Day »
Daily Weekly Monthly Yearly Custom
  High: Low: Average:
Temperature: 27.2 °C 21.5 °C 23.6 °C
Dew Point: 21.7 °C 17.7 °C 20.4 °C
Humidity: 91% 70% 83%
Wind Speed: 19.3km/h 9.7km/h 15km/h
Wind Gust: 19.3km/h - -
Wind- - ESE
Pressure: 1017.2 hPa 1013.1 hPa -
Precipitation: 0 mm    
Historical Graphs
 
 
Tabular Data for October 07, 2017
Time Temperature Dew Point Pressure Wind Wind Speed Wind Gust Humidity Rainfall Rate (Hourly) Conditions
00:00 21.8 °C 17.9 °C 1016.8 hPa East 9.7 km/h 9.7 km/h 79% 0 mm OVC
00:05 21.8 °C 18 °C 1016.8 hPa East 9.7 km/h 9.7 km/h 79% 0 mm OVC
00:10 21.8 °C 18 °C 1016.8 hPa East 9.7 km/h 9.7 km/h 79% 0 mm OVC
00:15 21.8 °C 18 °C 1016.8 hPa East 9.7 km/h 9.7 km/h 79% 0 mm OVC
00:20 21.7 °C 17.7 °C 1016.8 hPa East 9.7 km/h 9.7 km/h 78% 0 mm OVC
00:25 21.7 °C 17.9 °C 1016.8 hPa East 9.7 km/h 9.7 km/h 79% 0 mm OVC
00:30 21.6 °C 17.8 °C 1016.8 hPa East 9.7 km/h 9.7 km/h 79% 0 mm OVC
00:40 21.6 °C 17.8 °C 1016.8 hPa East 9.7 km/h 9.7 km/h 79% 0 mm OVC
00:45 21.6 °C 17.8 °C 1016.8 hPa East 9.7 km/h 9.7 km/h 79% 0 mm OVC
00:50 21.6 °C 17.8 °C 1016.5 hPa East 9.7 km/h 9.7 km/h 79% 0 mm OVC
00:55 21.6 °C 17.8 °C 1016.5 hPa East 9.7 km/h 9.7 km/h 79% 0 mm OVC
01:00 21.6 °C 17.8 °C 1016.5 hPa East 9.7 km/h 9.7 km/h 79% 0 mm OVC
01:05 21.6 °C 17.8 °C 1016.5 hPa East 9.7 km/h 9.7 km/h 79% 0 mm OVC
01:10 21.7 °C 17.9 °C 1016.5 hPa East 9.7 km/h 9.7 km/h 79% 0 mm OVC
01:15 21.8 °C 18.2 °C 1016.5 hPa ESE 9.7 km/h 9.7 km/h 80% 0 mm BKN
01:20 21.8 °C 18.2 °C 1016.5 hPa ESE 9.7 km/h 9.7 km/h 80% 0 mm BKN
01:25 21.9 °C 18.3 °C 1016.5 hPa ESE 19.3 km/h 19.3 km/h 80% 0 mm SCT
01:30 22 °C 18.4 °C 1016.1 hPa ESE 19.3 km/h 19.3 km/h 80% 0 mm SCT
01:35 22 °C 18.4 °C 1016.1 hPa ESE 19.3 km/h 19.3 km/h 80% 0 mm SCT
01:40 22.1 °C 18.4 °C 1016.1 hPa ESE 19.3 km/h 19.3 km/h 80% 0 mm SCT
01:45 22.1 °C 18.4 °C 1016.1 hPa ESE 19.3 km/h 19.3 km/h 80% 0 mm SCT
01:50 22.1 °C 18.5 °C 1016.1 hPa ESE 19.3 km/h 19.3 km/h 80% 0 mm SCT
01:55 22.2 °C 18.8 °C 1016.1 hPa ESE 19.3 km/h 19.3 km/h 81% 0 mm SCT
02:00 22.3 °C 18.9 °C 1016.1 hPa ESE 19.3 km/h 19.3 km/h 81% 0 mm SCT
02:05 22.3 °C 18.9 °C 1016.1 hPa ESE 19.3 km/h 19.3 km/h 81% 0 mm SCT
02:15 22.4 °C 18.9 °C 1016.1 hPa ESE 19.3 km/h 19.3 km/h 81% 0 mm SCT
02:20 22.4 °C 18.9 °C 1015.8 hPa ESE 19.3 km/h 19.3 km/h 81% 0 mm SCT
02:25 22.4 °C 19 °C 1015.8 hPa ESE 19.3 km/h 19.3 km/h 81% 0 mm SCT
02:30 22.4 °C 19 °C 1015.8 hPa ESE 19.3 km/h 19.3 km/h 81% 0 mm SCT
02:40 22.4 °C 19 °C 1015.8 hPa ESE 19.3 km/h 19.3 km/h 81% 0 mm SCT
02:45 22.4 °C 19.2 °C 1015.8 hPa ESE 16.1 km/h 19.3 km/h 82% 0 mm BKN
02:50 22.4 °C 19.2 °C 1015.8 hPa ESE 16.1 km/h 16.1 km/h 82% 0 mm BKN
02:55 22.4 °C 19.2 °C 1015.8 hPa ESE 16.1 km/h 16.1 km/h 82% 0 mm BKN
03:05 22.4 °C 19.2 °C 1015.8 hPa ESE 16.1 km/h 16.1 km/h 82% 0 mm BKN
03:10 22.3 °C 19.3 °C 1015.8 hPa ESE 16.1 km/h 16.1 km/h 83% 0 mm BKN
03:15 22.3 °C 19.3 °C 1015.8 hPa ESE 14.5 km/h 16.1 km/h 83% 0 mm FEW
03:20 22.3 °C 19.4 °C 1015.8 hPa ESE 14.5 km/h 14.5 km/h 84% 0 mm FEW
03:30 22.2 °C 19.4 °C 1015.5 hPa ESE 14.5 km/h 14.5 km/h 84% 0 mm FEW
03:35 22.2 °C 19.6 °C 1015.5 hPa ESE 14.5 km/h 14.5 km/h 85% 0 mm FEW
03:40 22.2 °C 19.6 °C 1015.5 hPa ESE 14.5 km/h 14.5 km/h 85% 0 mm FEW
03:45 22.2 °C 19.6 °C 1015.5 hPa ESE 14.5 km/h 14.5 km/h 85% 0 mm FEW
03:50 22.2 °C 19.6 °C 1015.5 hPa ESE 14.5 km/h 14.5 km/h 85% 0 mm FEW
03:55 22.2 °C 19.6 °C 1015.5 hPa ESE 14.5 km/h 14.5 km/h 85% 0 mm FEW
04:00 22.2 °C 19.5 °C 1015.5 hPa ESE 14.5 km/h 14.5 km/h 85% 0 mm FEW
04:05 22.1 °C 19.4 °C 1015.5 hPa ESE 14.5 km/h 14.5 km/h 85% 0 mm FEW
04:10 22 °C 19.6 °C 1015.5 hPa ESE 14.5 km/h 14.5 km/h 86% 0 mm FEW
04:15 22 °C 19.6 °C 1015.5 hPa ESE 16.1 km/h 16.1 km/h 86% 0 mm OVC
04:20 22 °C 19.6 °C 1015.5 hPa ESE 16.1 km/h 16.1 km/h 86% 0 mm OVC
04:25 22 °C 19.6 °C 1015.1 hPa ESE 16.1 km/h 16.1 km/h 86% 0 mm OVC
04:30 22 °C 19.6 °C 1015.1 hPa ESE 16.1 km/h 16.1 km/h 86% 0 mm OVC
04:35 22 °C 19.6 °C 1015.1 hPa ESE 16.1 km/h 16.1 km/h 86% 0 mm OVC
04:40 22 °C 19.6 °C 1015.1 hPa ESE 16.1 km/h 16.1 km/h 86% 0 mm OVC
04:45 22 °C 19.6 °C 1015.1 hPa ESE 16.1 km/h 16.1 km/h 86% 0 mm OVC
04:50 22 °C 19.6 °C 1015.1 hPa ESE 16.1 km/h 16.1 km/h 86% 0 mm OVC
04:55 22 °C 19.6 °C 1015.1 hPa ESE 16.1 km/h 16.1 km/h 86% 0 mm OVC
05:00 22 °C 19.6 °C 1015.1 hPa ESE 16.1 km/h 16.1 km/h 86% 0 mm OVC
05:05 22 °C 19.6 °C 1015.1 hPa ESE 16.1 km/h 16.1 km/h 86% 0 mm OVC
05:10 22 °C 19.6 °C 1015.1 hPa ESE 16.1 km/h 16.1 km/h 86% 0 mm OVC
05:15 22 °C 19.6 °C 1015.1 hPa ESE 12.9 km/h 16.1 km/h 86% 0 mm OVC
05:20 22 °C 19.6 °C 1015.5 hPa ESE 12.9 km/h 12.9 km/h 86% 0 mm OVC
05:25 22 °C 19.7 °C 1015.5 hPa ESE 12.9 km/h 12.9 km/h 87% 0 mm OVC
05:30 21.9 °C 19.7 °C 1015.5 hPa ESE 12.9 km/h 12.9 km/h 87% 0 mm OVC
05:40 21.9 °C 19.7 °C 1015.5 hPa ESE 12.9 km/h 12.9 km/h 87% 0 mm OVC
05:45 21.9 °C 19.7 °C 1015.5 hPa ESE 12.9 km/h 12.9 km/h 87% 0 mm OVC
05:50 21.9 °C 19.7 °C 1015.5 hPa ESE 12.9 km/h 12.9 km/h 87% 0 mm OVC
05:55 21.9 °C 19.7 °C 1015.5 hPa ESE 12.9 km/h 12.9 km/h 87% 0 mm OVC
06:00 21.9 °C 19.7 °C 1015.5 hPa ESE 12.9 km/h 12.9 km/h 87% 0 mm OVC
06:05 21.9 °C 19.7 °C 1015.5 hPa ESE 12.9 km/h 12.9 km/h 87% 0 mm OVC
06:15 21.9 °C 19.7 °C 1015.5 hPa ESE 12.9 km/h 12.9 km/h 87% 0 mm OVC
06:20 21.9 °C 19.7 °C 1015.8 hPa ESE 12.9 km/h 12.9 km/h 87% 0 mm OVC
06:25 21.9 °C 19.7 °C 1015.5 hPa ESE 12.9 km/h 12.9 km/h 87% 0 mm OVC
06:30 21.9 °C 19.6 °C 1015.5 hPa ESE 12.9 km/h 12.9 km/h 87% 0 mm OVC
06:35 21.9 °C 19.6 °C 1015.5 hPa ESE 12.9 km/h 12.9 km/h 87% 0 mm OVC
06:40 21.9 °C 19.6 °C 1015.5 hPa ESE 12.9 km/h 12.9 km/h 87% 0 mm OVC
06:45 21.9 °C 19.6 °C 1015.8 hPa ESE 12.9 km/h 12.9 km/h 87% 0 mm OVC
06:50 21.9 °C 19.6 °C 1015.8 hPa ESE 12.9 km/h 12.9 km/h 87% 0 mm OVC
06:55 21.9 °C 19.6 °C 1015.8 hPa ESE 9.7 km/h 12.9 km/h 87% 0 mm OVC
07:00 21.9 °C 19.6 °C 1015.8 hPa ESE 9.7 km/h 9.7 km/h 87% 0 mm OVC
07:05 21.8 °C 19.6 °C 1015.8 hPa ESE 9.7 km/h 9.7 km/h 87% 0 mm OVC
07:10 21.8 °C 19.6 °C 1015.8 hPa ESE 9.7 km/h 9.7 km/h 87% 0 mm OVC
07:15 21.8 °C 19.6 °C 1015.8 hPa SE 19.3 km/h 19.3 km/h 87% 0 mm OVC
07:20 21.8 °C 19.8 °C 1015.8 hPa SE 19.3 km/h 19.3 km/h 88% 0 mm OVC
07:25 21.8 °C 19.8 °C 1016.1 hPa SE 19.3 km/h 19.3 km/h 88% 0 mm OVC
07:30 21.8 °C 19.7 °C 1015.8 hPa SE 19.3 km/h 19.3 km/h 88% 0 mm OVC
07:40 21.8 °C 19.7 °C 1016.1 hPa SE 19.3 km/h 19.3 km/h 88% 0 mm OVC
07:45 21.8 °C 19.7 °C 1016.1 hPa SE 19.3 km/h 19.3 km/h 88% 0 mm OVC
07:50 21.8 °C 19.7 °C 1016.1 hPa SE 19.3 km/h 19.3 km/h 88% 0 mm OVC
07:55 21.7 °C 19.7 °C 1016.1 hPa SE 19.3 km/h 19.3 km/h 88% 0 mm OVC
08:00 21.7 °C 19.8 °C 1016.1 hPa SE 19.3 km/h 19.3 km/h 89% 0 mm OVC
08:05 21.7 °C 19.8 °C 1016.5 hPa SE 19.3 km/h 19.3 km/h 89% 0 mm OVC
08:10 21.6 °C 19.9 °C 1016.5 hPa SE 19.3 km/h 19.3 km/h 90% 0 mm OVC
08:15 21.6 °C 19.8 °C 1016.5 hPa ESE 11.3 km/h 19.3 km/h 90% 0 mm OVC
08:20 21.6 °C 19.8 °C 1016.5 hPa East 11.3 km/h 11.3 km/h 90% 0 mm OVC
08:25 21.6 °C 19.8 °C 1016.5 hPa ESE 12.9 km/h 12.9 km/h 90% 0 mm -DZ
08:35 21.5 °C 19.8 °C 1016.8 hPa ESE 12.9 km/h 12.9 km/h 90% 0 mm -DZ
08:40 21.5 °C 19.9 °C 1016.8 hPa ESE 12.9 km/h 12.9 km/h 91% 0 mm -DZ
08:45 21.5 °C 19.9 °C 1016.8 hPa ESE 11.3 km/h 12.9 km/h 91% 0 mm OVC
08:50 21.5 °C 19.9 °C 1016.8 hPa ESE 11.3 km/h 11.3 km/h 91% 0 mm OVC
08:55 21.6 °C 20 °C 1016.8 hPa ESE 11.3 km/h 11.3 km/h 91% 0 mm OVC
09:00 21.6 °C 20 °C 1016.8 hPa ESE 11.3 km/h 11.3 km/h 91% 0 mm OVC
09:10 21.6 °C 20.1 °C 1016.8 hPa ESE 11.3 km/h 11.3 km/h 91% 0 mm OVC
09:15 21.7 °C 20.1 °C 1016.8 hPa ESE 11.3 km/h 11.3 km/h 91% 0 mm OVC
09:20 21.7 °C 20.2 °C 1016.8 hPa East 11.3 km/h 11.3 km/h 91% 0 mm OVC
09:25 21.7 °C 20.2 °C 1016.8 hPa East 12.9 km/h 12.9 km/h 91% 0 mm -DZ
09:30 21.8 °C 20.2 °C 1016.8 hPa East 12.9 km/h 12.9 km/h 91% 0 mm -DZ
09:40 22 °C 20.3 °C 1017.2 hPa East 12.9 km/h 12.9 km/h 90% 0 mm -DZ
09:45 22.1 °C 20.3 °C 1017.2 hPa East 12.9 km/h 12.9 km/h 90% 0 mm -DZ
09:50 22.2 °C 20.4 °C 1017.2 hPa East 12.9 km/h 12.9 km/h 90% 0 mm -DZ
09:55 22.2 °C 20.3 °C 1017.2 hPa East 12.9 km/h 12.9 km/h 89% 0 mm -DZ
10:00 22.3 °C 20.4 °C 1017.2 hPa East 12.9 km/h 12.9 km/h 89% 0 mm -DZ
10:05 22.3 °C 20.4 °C 1017.2 hPa East 12.9 km/h 12.9 km/h 89% 0 mm -DZ
10:10 22.4 °C 20.5 °C 1017.2 hPa East 12.9 km/h 12.9 km/h 89% 0 mm -DZ
10:15 22.4 °C 20.6 °C 1017.2 hPa East 14.5 km/h 14.5 km/h 89% 0 mm OVC
10:20 22.4 °C 20.6 °C 1017.2 hPa East 14.5 km/h 14.5 km/h 89% 0 mm OVC
10:25 22.6 °C 20.6 °C 1017.2 hPa East 14.5 km/h 14.5 km/h 89% 0 mm OVC
10:30 22.6 °C 20.5 °C 1017.2 hPa East 14.5 km/h 14.5 km/h 88% 0 mm OVC
10:35 22.7 °C 20.6 °C 1017.2 hPa East 14.5 km/h 14.5 km/h 88% 0 mm OVC
10:40 22.7 °C 20.6 °C 1017.2 hPa East 14.5 km/h 14.5 km/h 88% 0 mm OVC
10:45 22.7 °C 20.6 °C 1017.2 hPa East 14.5 km/h 14.5 km/h 88% 0 mm OVC
10:50 22.8 °C 20.7 °C 1016.8 hPa East 14.5 km/h 14.5 km/h 88% 0 mm OVC
10:55 22.8 °C 20.7 °C 1017.2 hPa East 14.5 km/h 14.5 km/h 88% 0 mm OVC
11:00 22.9 °C 20.8 °C 1016.8 hPa East 14.5 km/h 14.5 km/h 88% 0 mm OVC
11:05 23 °C 20.7 °C 1016.8 hPa East 14.5 km/h 14.5 km/h 87% 0 mm OVC
11:10 23.1 °C 20.8 °C 1016.8 hPa East 14.5 km/h 14.5 km/h 87% 0 mm OVC
11:15 23.1 °C 20.8 °C 1016.8 hPa ESE 14.5 km/h 14.5 km/h 87% 0 mm OVC
11:20 23.2 °C 20.7 °C 1016.8 hPa ESE 14.5 km/h 14.5 km/h 86% 0 mm OVC
11:25 23.3 °C 20.8 °C 1016.8 hPa SE 16.1 km/h 16.1 km/h 86% 0 mm OVC
11:30 23.3 °C 20.8 °C 1016.8 hPa SE 16.1 km/h 16.1 km/h 86% 0 mm OVC
11:35 23.4 °C 20.7 °C 1017.2 hPa SE 16.1 km/h 16.1 km/h 85% 0 mm OVC
11:40 23.5 °C 20.8 °C 1017.2 hPa SE 16.1 km/h 16.1 km/h 85% 0 mm OVC
11:45 23.6 °C 20.9 °C 1016.8 hPa SE 16.1 km/h 16.1 km/h 85% 0 mm OVC
11:50 23.6 °C 20.9 °C 1017.2 hPa SE 16.1 km/h 16.1 km/h 85% 0 mm OVC
11:55 23.7 °C 21 °C 1017.2 hPa SE 16.1 km/h 16.1 km/h 85% 0 mm OVC
12:00 23.8 °C 20.9 °C 1016.8 hPa SE 16.1 km/h 16.1 km/h 84% 0 mm OVC
12:05 23.8 °C 20.9 °C 1017.2 hPa SE 16.1 km/h 16.1 km/h 84% 0 mm OVC
12:10 23.8 °C 20.9 °C 1017.2 hPa SE 16.1 km/h 16.1 km/h 84% 0 mm OVC
12:15 23.8 °C 20.9 °C 1016.8 hPa SE 11.3 km/h 16.1 km/h 84% 0 mm OVC
12:20 23.8 °C 20.8 °C 1016.8 hPa SE 11.3 km/h 11.3 km/h 83% 0 mm OVC
12:25 23.9 °C 21.1 °C 1016.8 hPa SE 11.3 km/h 11.3 km/h 84% 0 mm OVC
12:30 24.1 °C 21.2 °C 1016.8 hPa SE 11.3 km/h 11.3 km/h 84% 0 mm OVC
12:35 24.2 °C 21.2 °C 1016.8 hPa SE 11.3 km/h 11.3 km/h 83% 0 mm OVC
12:40 24.4 °C 21.1 °C 1016.5 hPa SE 11.3 km/h 11.3 km/h 82% 0 mm OVC
12:45 24.4 °C 21.2 °C 1016.5 hPa SE 11.3 km/h 11.3 km/h 82% 0 mm OVC
12:50 24.8 °C 21.3 °C 1016.1 hPa SE 11.3 km/h 11.3 km/h 81% 0 mm OVC
12:55 25.4 °C 21.3 °C 1016.5 hPa SE 11.3 km/h 11.3 km/h 78% 0 mm OVC
13:00 25.6 °C 21.2 °C 1016.1 hPa SE 11.3 km/h 11.3 km/h 77% 0 mm OVC
13:05 25.6 °C 21.5 °C 1016.1 hPa SE 11.3 km/h 11.3 km/h 78% 0 mm OVC
13:10 25.6 °C 21.2 °C 1016.1 hPa SE 11.3 km/h 11.3 km/h 77% 0 mm OVC
13:15 25.6 °C 21.4 °C 1016.1 hPa ESE 16.1 km/h 16.1 km/h 78% 0 mm BKN
13:20 25.8 °C 21.5 °C 1015.8 hPa East 16.1 km/h 16.1 km/h 77% 0 mm BKN
13:25 26.1 °C 21.3 °C 1015.8 hPa East 14.5 km/h 16.1 km/h 75% 0 mm BKN
13:30 26.3 °C 21.3 °C 1015.8 hPa East 14.5 km/h 14.5 km/h 74% 0 mm BKN
13:35 26.4 °C 21.4 °C 1015.8 hPa East 14.5 km/h 14.5 km/h 74% 0 mm BKN
13:40 26.2 °C 21.6 °C 1015.8 hPa East 14.5 km/h 14.5 km/h 76% 0 mm BKN
13:45 26.1 °C 21.3 °C 1015.8 hPa ESE 16.1 km/h 16.1 km/h 75% 0 mm BKN
13:50 26.2 °C 21.4 °C 1015.8 hPa SE 16.1 km/h 16.1 km/h 75% 0 mm BKN
14:00 26.3 °C 21.3 °C 1015.5 hPa SE 16.1 km/h 16.1 km/h 74% 0 mm BKN
14:05 26.6 °C 21.7 °C 1015.5 hPa SE 16.1 km/h 16.1 km/h 75% 0 mm BKN
14:10 26.7 °C 21.4 °C 1015.1 hPa SE 16.1 km/h 16.1 km/h 73% 0 mm BKN
14:15 26.6 °C 21.3 °C 1015.1 hPa SE 16.1 km/h 16.1 km/h 73% 0 mm BKN
14:20 26.6 °C 21.6 °C 1015.1 hPa ESE 16.1 km/h 16.1 km/h 74% 0 mm BKN
14:25 26.9 °C 21.2 °C 1015.1 hPa ESE 16.1 km/h 16.1 km/h 71% 0 mm BKN
14:30 26.8 °C 21.3 °C 1014.8 hPa ESE 16.1 km/h 16.1 km/h 72% 0 mm BKN
14:40 26.6 °C 21.2 °C 1014.8 hPa ESE 16.1 km/h 16.1 km/h 72% 0 mm BKN
14:45 26.8 °C 21.3 °C 1014.8 hPa ESE 16.1 km/h 16.1 km/h 72% 0 mm BKN
14:50 27 °C 21.1 °C 1015.1 hPa ESE 16.1 km/h 16.1 km/h 70% 0 mm BKN
14:55 27.2 °C 21.2 °C 1014.8 hPa ESE 16.1 km/h 16.1 km/h 70% 0 mm BKN
15:00 27.1 °C 21.3 °C 1014.8 hPa ESE 16.1 km/h 16.1 km/h 71% 0 mm BKN
15:05 26.8 °C 21.6 °C 1014.8 hPa ESE 16.1 km/h 16.1 km/h 73% 0 mm BKN
15:10 26.6 °C 21.4 °C 1014.8 hPa ESE 16.1 km/h 16.1 km/h 73% 0 mm BKN
15:15 26.4 °C 21.2 °C 1014.8 hPa ESE 16.1 km/h 16.1 km/h 73% 0 mm OVC
15:20 26.4 °C 21.4 °C 1014.4 hPa ESE 16.1 km/h 16.1 km/h 74% 0 mm OVC
15:25 26.5 °C 21.5 °C 1014.4 hPa ESE 16.1 km/h 16.1 km/h 74% 0 mm OVC
15:30 26.7 °C 21.5 °C 1014.4 hPa ESE 16.1 km/h 16.1 km/h 73% 0 mm OVC
15:35 26.8 °C 21.6 °C 1014.4 hPa ESE 16.1 km/h 16.1 km/h 73% 0 mm OVC
15:40 26.8 °C 21.1 °C 1014.4 hPa ESE 16.1 km/h 16.1 km/h 71% 0 mm OVC
15:45 26.7 °C 20.8 °C 1014.4 hPa ESE 16.1 km/h 16.1 km/h 70% 0 mm OVC
15:50 26.6 °C 21.2 °C 1014.1 hPa ESE 16.1 km/h 16.1 km/h 72% 0 mm OVC
15:55 26.6 °C 21.3 °C 1014.1 hPa ESE 16.1 km/h 16.1 km/h 73% 0 mm OVC
16:00 26.5 °C 21.3 °C 1014.1 hPa ESE 16.1 km/h 16.1 km/h 73% 0 mm OVC
16:05 26.5 °C 21.3 °C 1014.1 hPa ESE 16.1 km/h 16.1 km/h 73% 0 mm OVC
16:10 26.4 °C 21.2 °C 1014.1 hPa ESE 16.1 km/h 16.1 km/h 73% 0 mm OVC
16:15 26.4 °C 21.4 °C 1014.1 hPa SE 14.5 km/h 16.1 km/h 74% 0 mm OVC
16:20 26.4 °C 21.3 °C 1014.1 hPa SE 14.5 km/h 14.5 km/h 74% 0 mm OVC
16:25 26.4 °C 21.2 °C 1014.1 hPa SE 14.5 km/h 14.5 km/h 73% 0 mm OVC
16:30 26.4 °C 21.4 °C 1014.1 hPa SE 14.5 km/h 14.5 km/h 74% 0 mm OVC
16:35 26.4 °C 21.4 °C 1014.1 hPa SE 14.5 km/h 14.5 km/h 74% 0 mm OVC
16:40 26.3 °C 21.3 °C 1014.1 hPa SE 14.5 km/h 14.5 km/h 74% 0 mm OVC
16:45 26.3 °C 21.3 °C 1014.1 hPa SE 14.5 km/h 14.5 km/h 74% 0 mm OVC
16:50 26.2 °C 21.4 °C 1014.1 hPa SE 14.5 km/h 14.5 km/h 75% 0 mm OVC
16:55 26.2 °C 21.4 °C 1014.1 hPa SE 14.5 km/h 14.5 km/h 75% 0 mm OVC
17:00 26.1 °C 21.3 °C 1014.1 hPa SE 14.5 km/h 14.5 km/h 75% 0 mm OVC
17:05 26 °C 21.4 °C 1013.8 hPa SE 14.5 km/h 14.5 km/h 76% 0 mm OVC
17:10 25.9 °C 21.3 °C 1013.8 hPa SE 14.5 km/h 14.5 km/h 76% 0 mm OVC
17:15 25.8 °C 21.3 °C 1013.8 hPa SE 14.5 km/h 14.5 km/h 76% 0 mm OVC
17:20 25.7 °C 21.2 °C 1013.8 hPa ESE 14.5 km/h 14.5 km/h 76% 0 mm OVC
17:25 25.7 °C 21.3 °C 1013.8 hPa ESE 14.5 km/h 14.5 km/h 77% 0 mm OVC
17:30 25.6 °C 21.3 °C 1013.4 hPa ESE 14.5 km/h 14.5 km/h 77% 0 mm OVC
17:35 25.6 °C 21.3 °C 1013.4 hPa ESE 14.5 km/h 14.5 km/h 77% 0 mm OVC
17:40 25.6 °C 21.3 °C 1013.4 hPa ESE 14.5 km/h 14.5 km/h 77% 0 mm OVC
17:45 25.6 °C 21.3 °C 1013.4 hPa ESE 14.5 km/h 14.5 km/h 77% 0 mm OVC
17:50 25.6 °C 21.2 °C 1013.4 hPa ESE 14.5 km/h 14.5 km/h 77% 0 mm OVC
17:55 25.6 °C 21.2 °C 1013.1 hPa ESE 14.5 km/h 14.5 km/h 77% 0 mm OVC
18:00 25.5 °C 21.4 °C 1013.1 hPa ESE 14.5 km/h 14.5 km/h 78% 0 mm OVC
18:05 25.4 °C 21.3 °C 1013.1 hPa ESE 14.5 km/h 14.5 km/h 78% 0 mm OVC
18:10 25.3 °C 21.2 °C 1013.1 hPa ESE 14.5 km/h 14.5 km/h 78% 0 mm OVC
18:15 25.3 °C 21.2 °C 1013.1 hPa ESE 19.3 km/h 19.3 km/h 78% 0 mm OVC
18:20 25.2 °C 21.3 °C 1013.4 hPa East 19.3 km/h 19.3 km/h 79% 0 mm OVC
18:25 25.1 °C 21.2 °C 1013.4 hPa East 19.3 km/h 19.3 km/h 79% 0 mm OVC
18:30 25.1 °C 21.2 °C 1013.4 hPa East 19.3 km/h 19.3 km/h 79% 0 mm OVC
18:35 25 °C 21.1 °C 1013.4 hPa East 19.3 km/h 19.3 km/h 79% 0 mm OVC
18:40 24.9 °C 21.1 °C 1013.4 hPa East 19.3 km/h 19.3 km/h 79% 0 mm OVC
18:45 24.9 °C 21.2 °C 1013.4 hPa East 19.3 km/h 19.3 km/h 80% 0 mm OVC
18:50 24.9 °C 21.2 °C 1013.4 hPa East 19.3 km/h 19.3 km/h 80% 0 mm OVC
18:55 24.8 °C 21.2 °C 1013.4 hPa East 19.3 km/h 19.3 km/h 80% 0 mm OVC
19:00 24.8 °C 21.1 °C 1013.4 hPa East 19.3 km/h 19.3 km/h 80% 0 mm OVC
19:05 24.7 °C 21.1 °C 1013.4 hPa East 19.3 km/h 19.3 km/h 80% 0 mm OVC
19:10 24.7 °C 21.2 °C 1013.4 hPa East 19.3 km/h 19.3 km/h 81% 0 mm OVC
19:15 24.6 °C 21.1 °C 1013.4 hPa East 19.3 km/h 19.3 km/h 81% 0 mm OVC
19:20 24.6 °C 21.1 °C 1013.4 hPa East 19.3 km/h 19.3 km/h 81% 0 mm OVC
19:25 24.5 °C 21.2 °C 1013.8 hPa East 19.3 km/h 19.3 km/h 82% 0 mm OVC
19:30 24.4 °C 21.2 °C 1013.4 hPa East 19.3 km/h 19.3 km/h 82% 0 mm OVC
19:35 24.4 °C 21.2 °C 1013.4 hPa East 19.3 km/h 19.3 km/h 82% 0 mm OVC
19:45 24.3 °C 21.1 °C 1013.1 hPa East 19.3 km/h 19.3 km/h 82% 0 mm OVC
19:50 24.3 °C 21 °C 1013.1 hPa East 19.3 km/h 19.3 km/h 82% 0 mm OVC
19:55 24.2 °C 21.2 °C 1013.4 hPa East 19.3 km/h 19.3 km/h 83% 0 mm OVC
20:00 24.2 °C 21.1 °C 1013.4 hPa East 19.3 km/h 19.3 km/h 83% 0 mm OVC
20:05 24.2 °C 21.1 °C 1013.8 hPa East 19.3 km/h 19.3 km/h 83% 0 mm OVC
20:10 24.2 °C 21.1 °C 1013.8 hPa East 19.3 km/h 19.3 km/h 83% 0 mm OVC
20:15 24.1 °C 21.1 °C 1013.8 hPa East 14.5 km/h 19.3 km/h 83% 0 mm OVC
20:20 24.1 °C 21 °C 1014.1 hPa East 14.5 km/h 14.5 km/h 83% 0 mm OVC
20:25 24.1 °C 21.2 °C 1014.1 hPa East 14.5 km/h 14.5 km/h 84% 0 mm OVC
20:30 23.9 °C 21.1 °C 1014.1 hPa East 14.5 km/h 14.5 km/h 84% 0 mm OVC
20:35 23.9 °C 21.1 °C 1013.8 hPa East 14.5 km/h 14.5 km/h 84% 0 mm OVC
20:40 23.9 °C 21 °C 1014.1 hPa East 14.5 km/h 14.5 km/h 84% 0 mm OVC
20:45 23.8 °C 20.9 °C 1014.1 hPa East 14.5 km/h 14.5 km/h 84% 0 mm OVC
20:50 23.8 °C 21.2 °C 1014.1 hPa East 14.5 km/h 14.5 km/h 85% 0 mm OVC
20:55 23.8 °C 21.1 °C 1014.1 hPa East 14.5 km/h 14.5 km/h 85% 0 mm OVC
21:00 23.8 °C 21.1 °C 1014.1 hPa East 14.5 km/h 14.5 km/h 85% 0 mm OVC
21:05 23.8 °C 21.1 °C 1014.1 hPa East 14.5 km/h 14.5 km/h 85% 0 mm OVC
21:10 23.8 °C 21.1 °C 1014.1 hPa East 14.5 km/h 14.5 km/h 85% 0 mm OVC
21:15 23.7 °C 21.1 °C 1014.1 hPa East 16.1 km/h 16.1 km/h 85% 0 mm OVC
21:20 23.7 °C 21.1 °C 1014.1 hPa East 16.1 km/h 16.1 km/h 85% 0 mm OVC
21:25 23.7 °C 21.1 °C 1014.1 hPa East 16.1 km/h 16.1 km/h 85% 0 mm OVC
21:30 23.7 °C 21.1 °C 1014.1 hPa East 16.1 km/h 16.1 km/h 85% 0 mm OVC
21:35 23.7 °C 21 °C 1014.1 hPa East 16.1 km/h 16.1 km/h 85% 0 mm OVC
21:45 23.7 °C 21 °C 1014.4 hPa East 16.1 km/h 16.1 km/h 85% 0 mm OVC
21:50 23.6 °C 20.9 °C 1014.4 hPa East 16.1 km/h 16.1 km/h 85% 0 mm OVC
21:55 23.6 °C 20.9 °C 1014.4 hPa East 16.1 km/h 16.1 km/h 85% 0 mm OVC
22:00 23.6 °C 21.1 °C 1014.4 hPa East 16.1 km/h 16.1 km/h 86% 0 mm OVC
22:05 23.6 °C 20.9 °C 1014.4 hPa East 16.1 km/h 16.1 km/h 85% 0 mm OVC
22:10 23.6 °C 20.9 °C 1014.4 hPa East 16.1 km/h 16.1 km/h 85% 0 mm OVC
22:15 23.6 °C 20.9 °C 1014.4 hPa East 16.1 km/h 16.1 km/h 85% 0 mm OVC
22:20 23.6 °C 20.9 °C 1014.4 hPa East 16.1 km/h 16.1 km/h 85% 0 mm OVC
22:25 23.6 °C 21.1 °C 1014.4 hPa East 16.1 km/h 16.1 km/h 86% 0 mm OVC
22:30 23.6 °C 21.1 °C 1014.4 hPa East 16.1 km/h 16.1 km/h 86% 0 mm OVC
22:40 23.4 °C 20.9 °C 1014.4 hPa East 16.1 km/h 16.1 km/h 86% 0 mm OVC
22:45 23.4 °C 20.9 °C 1014.4 hPa East 16.1 km/h 16.1 km/h 86% 0 mm OVC
22:50 23.4 °C 20.9 °C 1014.4 hPa East 16.1 km/h 16.1 km/h 86% 0 mm OVC
22:55 23.4 °C 21.1 °C 1014.4 hPa East 16.1 km/h 16.1 km/h 87% 0 mm OVC
23:00 23.3 °C 21.1 °C 1014.4 hPa East 16.1 km/h 16.1 km/h 87% 0 mm OVC
23:05 23.3 °C 21.1 °C 1014.4 hPa East 16.1 km/h 16.1 km/h 87% 0 mm OVC
23:10 23.3 °C 21.1 °C 1014.4 hPa East 16.1 km/h 16.1 km/h 87% 0 mm OVC
23:15 23.3 °C 21.1 °C 1014.4 hPa East 12.9 km/h 16.1 km/h 87% 0 mm OVC
23:20 23.3 °C 20.9 °C 1014.4 hPa East 12.9 km/h 12.9 km/h 86% 0 mm OVC
23:25 23.4 °C 20.9 °C 1014.4 hPa East 12.9 km/h 12.9 km/h 86% 0 mm OVC
23:30 23.4 °C 20.9 °C 1014.4 hPa East 12.9 km/h 12.9 km/h 86% 0 mm OVC
23:35 23.3 °C 21.1 °C 1014.4 hPa East 12.9 km/h 12.9 km/h 87% 0 mm OVC
23:40 23.4 °C 21.1 °C 1014.4 hPa East 12.9 km/h 12.9 km/h 87% 0 mm OVC
23:45 23.4 °C 21.1 °C 1014.4 hPa East 12.9 km/h 12.9 km/h 87% 0 mm OVC
23:50 23.4 °C 21.1 °C 1014.4 hPa East 12.9 km/h 12.9 km/h 87% 0 mm OVC
23:55 23.4 °C 21.1 °C 1014.4 hPa East 12.9 km/h 12.9 km/h 87% 0 mm OVC
Piedmont Bend
Compliments of Weather Underground - 4 mb